createdAt,value
2023-05-10T00:00:35.889Z,100389.22
2023-05-10T00:05:37.791Z,100397.34
2023-05-10T00:10:39.657Z,100389.38
2023-05-10T00:15:41.496Z,100391.53
2023-05-10T00:20:43.413Z,100379.72
2023-05-10T00:25:45.416Z,100396.00
2023-05-10T00:30:47.231Z,100397.34
2023-05-10T00:35:49.176Z,100391.53
2023-05-10T00:40:51.122Z,100396.34
2023-05-10T00:46:00.914Z,100390.34
2023-05-10T00:51:03.375Z,100399.50
2023-05-10T00:56:05.277Z,100393.50
2023-05-10T01:01:07.260Z,100393.50
2023-05-10T01:06:09.173Z,100390.00
2023-05-10T01:11:11.144Z,100385.19
2023-05-10T01:16:13.183Z,100389.84
2023-05-10T01:21:21.017Z,100390.00
2023-05-10T01:26:49.100Z,100389.31
2023-05-10T01:32:09.586Z,100385.97
2023-05-10T01:37:16.879Z,100388.66
2023-05-10T01:42:21.131Z,100389.63
2023-05-10T01:47:29.985Z,100391.31
2023-05-10T01:52:34.023Z,100382.81
2023-05-10T01:57:40.728Z,100382.16
2023-05-10T02:02:45.690Z,100383.47
2023-05-10T02:07:48.433Z,100379.97
2023-05-10T02:12:51.174Z,100375.81
2023-05-10T02:17:55.348Z,100371.53
2023-05-10T02:22:58.054Z,100371.69
2023-05-10T02:28:00.992Z,100375.81
2023-05-10T02:33:05.495Z,100377.00
2023-05-10T02:38:08.417Z,100370.19
2023-05-10T02:43:14.432Z,100361.59
2023-05-10T02:48:17.302Z,100361.75
2023-05-10T02:53:32.566Z,100360.94
2023-05-10T02:58:34.423Z,100355.81
2023-05-10T03:03:36.245Z,100359.75
2023-05-10T03:08:38.571Z,100362.44
2023-05-10T03:13:50.045Z,100356.94
2023-05-10T03:18:54.784Z,100357.44
2023-05-10T03:24:04.234Z,100356.25
2023-05-10T03:29:07.552Z,100357.91
2023-05-10T03:34:09.929Z,100350.38
2023-05-10T03:39:11.834Z,100357.84
2023-05-10T03:44:13.829Z,100354.81
2023-05-10T03:49:15.928Z,100350.56
2023-05-10T03:54:18.227Z,100347.91
2023-05-10T03:59:20.374Z,100349.97
2023-05-10T04:04:22.971Z,100351.38
2023-05-10T04:09:26.387Z,100343.91
2023-05-10T04:14:28.190Z,100342.78
2023-05-10T04:19:30.602Z,100350.94
2023-05-10T04:24:32.502Z,100347.31
2023-05-10T04:29:34.445Z,100353.53
2023-05-10T04:34:36.390Z,100340.88
2023-05-10T04:39:40.224Z,100332.53
2023-05-10T04:44:43.658Z,100336.81
2023-05-10T04:49:45.603Z,100339.22
2023-05-10T04:54:47.442Z,100325.91
2023-05-10T04:59:50.493Z,100325.53
2023-05-10T05:04:52.585Z,100318.91
2023-05-10T05:09:54.554Z,100313.31
2023-05-10T05:14:56.413Z,100317.53
2023-05-10T05:19:58.407Z,100316.00
2023-05-10T05:25:00.437Z,100321.09
2023-05-10T05:30:02.233Z,100319.66
2023-05-10T05:35:04.374Z,100304.78
2023-05-10T05:40:06.883Z,100310.94
2023-05-10T05:45:09.910Z,100309.00
2023-05-10T05:50:11.808Z,100300.38
2023-05-10T05:55:13.921Z,100298.19
2023-05-10T06:00:16.443Z,100294.44
2023-05-10T06:05:21.295Z,100296.28
2023-05-10T06:10:23.873Z,100296.66
2023-05-10T06:15:25.794Z,100303.00
2023-05-10T06:20:27.805Z,100287.88
2023-05-10T06:25:29.716Z,100282.69
2023-05-10T06:30:31.767Z,100280.91
2023-05-10T06:35:34.594Z,100275.06
2023-05-10T06:40:37.112Z,100283.41
2023-05-10T06:45:39.105Z,100271.00
2023-05-10T06:50:40.952Z,100271.63
2023-05-10T06:55:42.819Z,100273.09
2023-05-10T07:00:46.561Z,100278.31
2023-05-10T07:05:48.489Z,100278.78
2023-05-10T07:10:50.601Z,100272.84
2023-05-10T07:15:52.518Z,100274.06
2023-05-10T07:20:54.432Z,100268.38
2023-05-10T07:25:58.381Z,100270.53
2023-05-10T07:31:00.383Z,100267.25
2023-05-10T07:36:02.292Z,100261.25
2023-05-10T07:41:04.150Z,100260.69
2023-05-10T07:46:06.430Z,100257.66
2023-05-10T07:51:10.432Z,100251.19
2023-05-10T07:56:23.525Z,100256.69
2023-05-10T08:01:25.714Z,100251.50
2023-05-10T08:06:29.219Z,100243.06
2023-05-10T08:11:31.637Z,100249.47
2023-05-10T08:16:34.236Z,100233.13
2023-05-10T08:21:36.932Z,100228.31
2023-05-10T08:26:38.900Z,100217.94
2023-05-10T08:31:40.830Z,100219.97
2023-05-10T08:36:42.762Z,100214.28
2023-05-10T08:41:45.416Z,100211.59
2023-05-10T08:46:47.566Z,100202.84
2023-05-10T08:51:52.192Z,100194.50
2023-05-10T08:56:54.373Z,100195.09
2023-05-10T09:01:58.661Z,100189.78
2023-05-10T09:07:00.702Z,100183.91
2023-05-10T09:12:02.699Z,100179.50
2023-05-10T09:17:05.471Z,100178.53
2023-05-10T09:22:07.537Z,100173.34
2023-05-10T09:27:09.437Z,100168.66
2023-05-10T09:32:11.393Z,100145.16
2023-05-10T09:37:13.605Z,100154.66
2023-05-10T09:42:19.366Z,100149.28
2023-05-10T09:47:21.220Z,100149.97
2023-05-10T09:52:23.059Z,100135.19
2023-05-10T09:57:26.040Z,100124.84
2023-05-10T10:02:31.118Z,100126.03
2023-05-10T10:07:33.216Z,100122.59
2023-05-10T10:12:35.135Z,100115.59
2023-05-10T10:17:38.331Z,100113.56
2023-05-10T10:22:40.162Z,100101.97
2023-05-10T10:27:42.501Z,100104.91
2023-05-10T10:33:07.938Z,100106.69
2023-05-10T10:38:18.685Z,100104.78
2023-05-10T10:43:29.975Z,100097.13
2023-05-10T10:48:31.813Z,100087.44
2023-05-10T10:53:33.658Z,100090.56
2023-05-10T10:58:35.570Z,100089.63
2023-05-10T11:03:37.567Z,100087.16
2023-05-10T11:08:45.057Z,100083.66
2023-05-10T11:13:50.880Z,100079.59
2023-05-10T11:18:53.639Z,100067.66
2023-05-10T11:23:57.724Z,100066.22
2023-05-10T11:29:01.895Z,100063.00
2023-05-10T11:34:03.862Z,100055.63
2023-05-10T11:39:06.120Z,100058.34
2023-05-10T11:44:10.200Z,100038.16
2023-05-10T11:49:12.769Z,100038.44
2023-05-10T11:54:14.796Z,100046.25
2023-05-10T11:59:16.693Z,100051.31
2023-05-10T12:04:18.810Z,100044.75
2023-05-10T12:09:31.381Z,100029.56
2023-05-10T12:14:41.798Z,100033.09
2023-05-10T12:19:44.929Z,100029.28
2023-05-10T12:24:46.771Z,100028.63
2023-05-10T12:29:49.229Z,100024.69
2023-05-10T12:34:54.448Z,100019.88
2023-05-10T12:39:56.271Z,100017.88
2023-05-10T12:44:58.670Z,100016.97
2023-05-10T12:50:01.367Z,100015.19
2023-05-10T12:55:04.262Z,100011.81
2023-05-10T13:00:06.736Z,100007.97
2023-05-10T13:05:08.888Z,100007.78
2023-05-10T13:10:11.317Z,99997.59
2023-05-10T13:15:13.225Z,100002.19
2023-05-10T13:20:15.946Z,99999.59
2023-05-10T13:25:18.376Z,100002.44
2023-05-10T13:30:21.659Z,100000.00
2023-05-10T13:35:23.572Z,99990.47
2023-05-10T13:40:25.382Z,99989.41
2023-05-10T13:45:27.285Z,99985.69
2023-05-10T13:50:29.275Z,99977.63
2023-05-10T13:55:31.759Z,99986.50
2023-05-10T14:00:33.637Z,99983.63
2023-05-10T14:05:35.534Z,99983.16
2023-05-10T14:10:38.034Z,99984.38
2023-05-10T14:15:39.969Z,99979.75
2023-05-10T14:20:41.922Z,99980.56
2023-05-10T14:25:44.612Z,99975.69
2023-05-10T14:30:46.503Z,99987.31
2023-05-10T14:35:48.576Z,99968.13
2023-05-10T14:40:50.768Z,99971.09
2023-05-10T14:45:52.766Z,99979.59
2023-05-10T14:50:54.765Z,99977.38
2023-05-10T14:55:56.632Z,99969.22
2023-05-10T15:00:58.505Z,99966.75
2023-05-10T15:06:00.817Z,99964.31
2023-05-10T15:11:02.700Z,99966.75
2023-05-10T15:16:04.771Z,99961.34
2023-05-10T15:21:06.836Z,99959.00
2023-05-10T15:26:08.888Z,99960.50
2023-05-10T15:31:11.655Z,99960.41
2023-05-10T15:36:13.564Z,99958.38
2023-05-10T15:41:15.534Z,99945.41
2023-05-10T15:46:17.402Z,99950.31
2023-05-10T15:51:19.837Z,99953.88
2023-05-10T15:56:22.545Z,99953.69
2023-05-10T16:01:24.701Z,99943.56
2023-05-10T16:06:26.695Z,99944.44
2023-05-10T16:11:28.578Z,99948.06
2023-05-10T16:16:30.854Z,99950.81
2023-05-10T16:21:32.900Z,99947.34
2023-05-10T16:26:40.821Z,99939.59
2023-05-10T16:31:42.832Z,99945.31
2023-05-10T16:36:44.864Z,99942.19
2023-05-10T16:41:46.912Z,99948.50
2023-05-10T16:46:49.109Z,99952.94
2023-05-10T16:51:51.030Z,99953.91
2023-05-10T16:56:52.967Z,99947.78
2023-05-10T17:01:55.132Z,99960.47
2023-05-10T17:06:57.765Z,99955.81
2023-05-10T17:11:59.738Z,99961.66
2023-05-10T17:17:01.785Z,99964.59
2023-05-10T17:22:04.038Z,99967.31
2023-05-10T17:27:06.079Z,99967.13
2023-05-10T17:32:09.429Z,99968.84
2023-05-10T17:37:11.346Z,99968.66
2023-05-10T17:42:13.858Z,99972.78
2023-05-10T17:47:15.754Z,99980.22
2023-05-10T17:52:17.650Z,99995.09
2023-05-10T17:57:20.902Z,99989.38
2023-05-10T18:02:22.887Z,99988.13
2023-05-10T18:07:26.145Z,99987.13
2023-05-10T18:12:28.150Z,99984.19
2023-05-10T18:17:30.179Z,99987.34
2023-05-10T18:22:32.184Z,99987.13
2023-05-10T18:27:34.514Z,99982.63
2023-05-10T18:32:38.498Z,99984.06
2023-05-10T18:37:40.577Z,99973.16
2023-05-10T18:42:42.366Z,99978.94
2023-05-10T18:47:44.340Z,99980.19
2023-05-10T18:52:46.897Z,99978.75
2023-05-10T18:57:48.728Z,99989.88
2023-05-10T19:02:50.760Z,99988.44
2023-05-10T19:07:52.630Z,99988.84
2023-05-10T19:12:55.552Z,99995.06
2023-05-10T19:17:58.857Z,99999.19
2023-05-10T19:23:09.838Z,99997.56
2023-05-10T19:28:12.567Z,99987.25
2023-05-10T19:33:14.579Z,99993.66
2023-05-10T19:38:16.676Z,99987.44
2023-05-10T19:43:18.675Z,99992.81
2023-05-10T19:48:20.634Z,99987.44
2023-05-10T19:53:22.555Z,99985.41
2023-05-10T19:58:25.242Z,99985.41
2023-05-10T20:03:28.722Z,99988.06
2023-05-10T20:08:31.122Z,99984.56
2023-05-10T20:13:33.529Z,99986.19
2023-05-10T20:18:35.474Z,99987.63
2023-05-10T20:23:37.498Z,99984.75
2023-05-10T20:28:39.400Z,99983.28
2023-05-10T20:33:41.313Z,99984.31
2023-05-10T20:38:43.193Z,99988.22
2023-05-10T20:43:45.131Z,99987.59
2023-05-10T20:48:47.115Z,99988.84
2023-05-10T20:53:49.080Z,99996.47
2023-05-10T20:58:51.038Z,99989.03
2023-05-10T21:03:52.982Z,99992.09
2023-05-10T21:08:54.857Z,99986.31
2023-05-10T21:13:57.216Z,99984.44
2023-05-10T21:18:59.580Z,99988.75
2023-05-10T21:24:01.610Z,99988.56
2023-05-10T21:29:04.982Z,99989.13
2023-05-10T21:34:07.040Z,99990.97
2023-05-10T21:39:08.895Z,100002.25
2023-05-10T21:44:11.502Z,99996.63
2023-05-10T21:49:13.354Z,99991.81
2023-05-10T21:54:15.182Z,100004.94
2023-05-10T21:59:18.177Z,99997.31
2023-05-10T22:04:20.193Z,99996.47
2023-05-10T22:09:24.398Z,100000.19
2023-05-10T22:14:26.559Z,100002.03
2023-05-10T22:19:28.490Z,99998.53
2023-05-10T22:24:30.663Z,100001.19
2023-05-10T22:29:32.773Z,100003.88
2023-05-10T22:34:35.843Z,99998.94
2023-05-10T22:39:37.759Z,99999.34
2023-05-10T22:44:39.537Z,99997.03
2023-05-10T22:49:42.602Z,99998.47
2023-05-10T22:54:44.466Z,100002.53
2023-05-10T22:59:46.358Z,100001.28
2023-05-10T23:04:48.397Z,99995.72
2023-05-10T23:09:50.325Z,99996.09
2023-05-10T23:14:52.286Z,99997.50
2023-05-10T23:19:54.281Z,100002.41
2023-05-10T23:24:57.524Z,100002.78
2023-05-10T23:29:59.617Z,100009.56
2023-05-10T23:35:01.545Z,100009.75
2023-05-10T23:40:03.519Z,100009.13
2023-05-10T23:45:05.997Z,100006.81
2023-05-10T23:50:08.115Z,100005.81
2023-05-10T23:55:10.319Z,100009.50
